Prins Christian Sund, Greenland
Current Conditions -  °F | °C
As of 9:50 AM on Wednesday 22 Oct 2014 (Local Time) from BGBW Reporting Station
Broken Clouds Broken Clouds  
Wind Chill: 32°   Ceiling: 1000
Heat Index: 32°   Visibility: 6mi
Dew Point: 32°   Wind: 1mph
Humidity: 100%   Direction: 40°NE
Pressure: 29.47"   Gusts: NA
Location:  60.05°N, 43.17°W
Report Text: BGBW 221150Z 04001KT 9999 SCT003 BKN010 00/M00 Q0998
Loading
Personal Weather Stations






























Interactive Weather Map
Tropical Storm Tracking
New forecast layout! Learn more

10-Day Weather Forecast

Advertisements
Track Severe Weather on mobile